createdAt,value
2019-05-07T00:02:52.798Z,100710.98
2019-05-07T00:05:56.974Z,100712.33
2019-05-07T00:09:03.221Z,100700.71
2019-05-07T00:12:07.561Z,100699.78
2019-05-07T00:15:12.626Z,100702.39
2019-05-07T00:18:17.483Z,100696.53
2019-05-07T00:21:23.365Z,100702.70
2019-05-07T00:24:27.667Z,100704.91
2019-05-07T00:27:32.216Z,100704.91
2019-05-07T00:30:36.417Z,100700.45
2019-05-07T00:33:43.037Z,100695.99
2019-05-07T00:37:13.102Z,100698.20
2019-05-07T00:40:32.119Z,100693.72
2019-05-07T00:43:38.914Z,100693.27
2019-05-07T00:46:43.141Z,100689.61
2019-05-07T00:49:47.409Z,100694.11
2019-05-07T00:52:52.412Z,100687.91
2019-05-07T00:55:56.619Z,100687.48
2019-05-07T00:59:02.205Z,100690.20
2019-05-07T01:02:06.951Z,100686.70
2019-05-07T01:05:12.276Z,100678.70
2019-05-07T01:08:16.210Z,100685.41
2019-05-07T01:11:22.474Z,100679.56
2019-05-07T01:14:26.041Z,100681.83
2019-05-07T01:17:30.613Z,100674.58
2019-05-07T01:20:35.029Z,100678.65
2019-05-07T01:23:39.237Z,100673.81
2019-05-07T01:26:43.802Z,100674.37
2019-05-07T01:29:47.735Z,100673.12
2019-05-07T01:33:13.627Z,100666.00
2019-05-07T01:36:22.483Z,100667.44
2019-05-07T01:39:26.577Z,100665.34
2019-05-07T01:42:32.682Z,100664.91
2019-05-07T01:45:46.446Z,100661.84
2019-05-07T01:48:45.280Z,100662.34
2019-05-07T01:51:49.488Z,100654.29
2019-05-07T01:54:53.615Z,100653.94
2019-05-07T01:57:57.530Z,100662.56
2019-05-07T02:01:02.952Z,100654.59
2019-05-07T02:04:25.933Z,100661.33
2019-05-07T02:07:37.021Z,100658.75
2019-05-07T02:10:45.151Z,100669.57
2019-05-07T02:13:49.373Z,100666.09
2019-05-07T02:16:53.464Z,100664.28
2019-05-07T02:19:57.702Z,100673.69
2019-05-07T02:23:02.799Z,100676.81
2019-05-07T02:26:06.881Z,100667.89
2019-05-07T02:29:12.215Z,100671.53
2019-05-07T02:32:16.969Z,100668.98
2019-05-07T02:35:23.518Z,100665.56
2019-05-07T02:38:36.414Z,100663.85
2019-05-07T02:41:44.017Z,100664.75
2019-05-07T02:45:05.135Z,100659.44
2019-05-07T02:48:12.768Z,100664.86
2019-05-07T02:51:23.995Z,100660.98
2019-05-07T02:54:53.150Z,100670.00
2019-05-07T02:57:56.296Z,100662.93
2019-05-07T03:01:00.306Z,100664.28
2019-05-07T03:04:04.587Z,100666.95
2019-05-07T03:07:09.193Z,100673.70
2019-05-07T03:10:14.017Z,100665.30
2019-05-07T03:13:18.177Z,100663.09
2019-05-07T03:16:38.541Z,100665.26
2019-05-07T03:19:28.731Z,100662.49
2019-05-07T03:22:33.975Z,100663.81
2019-05-07T03:25:55.818Z,100661.98
2019-05-07T03:29:03.920Z,100661.52
2019-05-07T03:32:39.134Z,100663.23
2019-05-07T03:35:47.032Z,100660.94
2019-05-07T03:38:53.777Z,100663.17
2019-05-07T03:41:57.288Z,100664.11
2019-05-07T03:45:08.294Z,100658.76
2019-05-07T03:48:16.951Z,100661.37
2019-05-07T03:51:23.784Z,100664.86
2019-05-07T03:54:27.355Z,100657.61
2019-05-07T03:57:33.373Z,100663.34
2019-05-07T04:00:37.843Z,100664.58
2019-05-07T04:03:44.495Z,100664.94
2019-05-07T04:06:47.408Z,100667.96
2019-05-07T04:09:53.475Z,100673.69
2019-05-07T04:12:58.137Z,100673.22
2019-05-07T04:16:04.060Z,100669.20
2019-05-07T04:19:08.268Z,100676.36
2019-05-07T04:22:13.254Z,100679.02
2019-05-07T04:25:26.195Z,100670.90
2019-05-07T04:28:37.044Z,100671.16
2019-05-07T04:31:43.624Z,100675.93
2019-05-07T04:34:57.539Z,100678.09
2019-05-07T04:38:06.366Z,100677.13
2019-05-07T04:41:07.345Z,100681.11
2019-05-07T04:44:14.059Z,100676.04
2019-05-07T04:47:32.934Z,100677.28
2019-05-07T04:50:41.425Z,100676.78
2019-05-07T04:53:33.100Z,100677.95
2019-05-07T04:56:37.543Z,100675.13
2019-05-07T04:59:42.806Z,100664.67
2019-05-07T05:02:56.189Z,100671.14
2019-05-07T05:06:02.639Z,100662.47
2019-05-07T05:09:07.468Z,100667.46
2019-05-07T05:12:13.160Z,100667.79
2019-05-07T05:15:17.973Z,100666.16
2019-05-07T05:18:22.447Z,100661.50
2019-05-07T05:21:52.817Z,100659.04
2019-05-07T05:25:23.026Z,100667.66
2019-05-07T05:28:27.734Z,100661.14
2019-05-07T05:31:33.176Z,100664.93
2019-05-07T05:34:37.501Z,100664.48
2019-05-07T05:37:42.930Z,100663.18
2019-05-07T05:40:47.016Z,100664.11
2019-05-07T05:43:58.864Z,100660.81
2019-05-07T05:47:03.249Z,100661.12
2019-05-07T05:50:13.404Z,100657.97
2019-05-07T05:53:32.727Z,100660.53
2019-05-07T05:56:43.300Z,100648.09
2019-05-07T06:00:09.233Z,100638.83
2019-05-07T06:03:27.466Z,100634.61
2019-05-07T06:06:53.965Z,100627.95
2019-05-07T06:10:05.102Z,100630.17
2019-05-07T06:13:14.847Z,100623.87
2019-05-07T06:16:22.541Z,100624.61
2019-05-07T06:19:35.328Z,100621.66
2019-05-07T06:23:04.146Z,100627.86
2019-05-07T06:26:08.128Z,100625.39
2019-05-07T06:29:12.067Z,100623.02
2019-05-07T06:32:17.448Z,100614.20
2019-05-07T06:35:23.034Z,100620.58
2019-05-07T06:38:29.227Z,100613.43
2019-05-07T06:41:52.552Z,100604.60
2019-05-07T06:45:14.580Z,100608.33
2019-05-07T06:48:33.087Z,100608.79
2019-05-07T06:51:25.496Z,100620.67
2019-05-07T06:54:31.969Z,100619.52
2019-05-07T06:57:36.356Z,100622.86
2019-05-07T07:01:08.025Z,100620.83
2019-05-07T07:04:25.160Z,100617.87
2019-05-07T07:07:46.381Z,100614.92
2019-05-07T07:11:12.954Z,100620.23
2019-05-07T07:14:17.275Z,100610.52
2019-05-07T07:17:22.414Z,100610.02
2019-05-07T07:20:27.219Z,100599.30
2019-05-07T07:23:32.389Z,100598.12
2019-05-07T07:26:37.192Z,100600.83
2019-05-07T07:29:46.368Z,100596.03
2019-05-07T07:32:51.914Z,100597.80
2019-05-07T07:35:56.381Z,100590.54
2019-05-07T07:39:02.057Z,100590.47
2019-05-07T07:42:06.863Z,100590.33
2019-05-07T07:45:18.249Z,100586.03
2019-05-07T07:48:24.906Z,100581.55
2019-05-07T07:51:40.586Z,100579.05
2019-05-07T07:54:35.041Z,100584.73
2019-05-07T07:57:43.770Z,100578.34
2019-05-07T08:01:05.740Z,100573.94
2019-05-07T08:04:12.105Z,100568.87
2019-05-07T08:07:15.674Z,100568.08
2019-05-07T08:10:22.124Z,100564.20
2019-05-07T08:13:26.170Z,100562.74
2019-05-07T08:16:32.689Z,100553.91
2019-05-07T08:19:36.633Z,100550.83
2019-05-07T08:22:42.320Z,100559.95
2019-05-07T08:25:49.449Z,100547.34
2019-05-07T08:28:53.724Z,100550.06
2019-05-07T08:32:16.488Z,100545.89
2019-05-07T08:35:32.559Z,100537.83
2019-05-07T08:38:52.400Z,100532.22
2019-05-07T08:41:55.804Z,100526.70
2019-05-07T08:45:07.500Z,100524.20
2019-05-07T08:48:24.800Z,100523.50
2019-05-07T08:51:29.497Z,100524.41
2019-05-07T08:54:34.023Z,100513.80
2019-05-07T08:57:38.057Z,100502.45
2019-05-07T09:00:42.176Z,100500.98
2019-05-07T09:03:46.500Z,100507.61
2019-05-07T09:06:51.942Z,100508.70
2019-05-07T09:09:56.276Z,100506.96
2019-05-07T09:13:02.786Z,100501.76
2019-05-07T09:16:06.644Z,100495.86
2019-05-07T09:19:12.597Z,100487.77
2019-05-07T09:22:16.318Z,100491.17
2019-05-07T09:25:22.318Z,100484.92
2019-05-07T09:28:26.617Z,100482.20
2019-05-07T09:31:39.008Z,100479.94
2019-05-07T09:34:45.037Z,100478.45
2019-05-07T09:37:49.206Z,100474.91
2019-05-07T09:40:56.517Z,100475.80
2019-05-07T09:43:59.692Z,100476.35
2019-05-07T09:47:03.769Z,100467.52
2019-05-07T09:50:09.025Z,100468.85
2019-05-07T09:53:13.057Z,100463.94
2019-05-07T09:56:17.222Z,100464.00
2019-05-07T09:59:21.888Z,100457.95
2019-05-07T10:02:26.489Z,100457.02
2019-05-07T10:05:32.187Z,100453.52
2019-05-07T10:08:36.807Z,100462.20
2019-05-07T10:11:52.453Z,100459.22
2019-05-07T10:14:56.505Z,100459.26
2019-05-07T10:18:06.519Z,100455.42
2019-05-07T10:21:12.733Z,100457.30
2019-05-07T10:24:16.820Z,100451.44
2019-05-07T10:27:21.881Z,100447.69
2019-05-07T10:30:26.388Z,100449.64
2019-05-07T10:33:31.983Z,100455.23
2019-05-07T10:36:36.036Z,100449.67
2019-05-07T10:39:40.075Z,100450.48
2019-05-07T10:42:44.353Z,100451.91
2019-05-07T10:46:06.240Z,100453.58
2019-05-07T10:49:16.804Z,100447.69
2019-05-07T10:52:22.771Z,100452.41
2019-05-07T10:55:27.040Z,100451.89
2019-05-07T10:58:31.982Z,100451.14
2019-05-07T11:01:44.819Z,100451.25
2019-05-07T11:04:49.085Z,100445.67
2019-05-07T11:07:53.868Z,100446.36
2019-05-07T11:10:58.072Z,100435.54
2019-05-07T11:14:02.910Z,100432.09
2019-05-07T11:17:28.941Z,100433.00
2019-05-07T11:20:46.105Z,100428.57
2019-05-07T11:23:38.528Z,100418.42
2019-05-07T11:26:42.597Z,100415.28
2019-05-07T11:29:47.358Z,100409.81
2019-05-07T11:32:52.228Z,100405.13
2019-05-07T11:35:56.614Z,100397.33
2019-05-07T11:39:01.793Z,100393.02
2019-05-07T11:42:18.120Z,100387.69
2019-05-07T11:45:28.880Z,100376.27
2019-05-07T11:48:36.406Z,100382.11
2019-05-07T11:51:46.038Z,100376.92
2019-05-07T11:54:52.110Z,100374.38
2019-05-07T11:57:55.997Z,100369.73
2019-05-07T12:01:07.058Z,100371.41
2019-05-07T12:04:12.512Z,100359.00
2019-05-07T12:07:16.553Z,100361.58
2019-05-07T12:10:22.281Z,100360.70
2019-05-07T12:13:26.379Z,100352.61
2019-05-07T12:16:32.016Z,100354.08
2019-05-07T12:19:36.979Z,100352.23
2019-05-07T12:22:47.255Z,100342.05
2019-05-07T12:25:52.893Z,100340.23
2019-05-07T12:28:57.232Z,100339.91
2019-05-07T12:32:13.202Z,100336.99
2019-05-07T12:35:18.460Z,100340.20
2019-05-07T12:38:23.096Z,100336.46
2019-05-07T12:41:33.249Z,100335.49
2019-05-07T12:44:37.167Z,100332.59
2019-05-07T12:47:42.183Z,100320.76
2019-05-07T12:50:46.603Z,100326.68
2019-05-07T12:53:55.987Z,100326.81
2019-05-07T12:57:02.374Z,100326.84
2019-05-07T13:00:24.852Z,100317.61
2019-05-07T13:03:53.884Z,100308.08
2019-05-07T13:07:08.541Z,100306.64
2019-05-07T13:10:12.864Z,100310.67
2019-05-07T13:13:16.965Z,100300.79
2019-05-07T13:16:22.070Z,100295.17
2019-05-07T13:19:26.824Z,100304.07
2019-05-07T13:22:32.557Z,100293.09
2019-05-07T13:25:36.877Z,100292.59
2019-05-07T13:28:42.033Z,100282.52
2019-05-07T13:31:48.868Z,100288.13
2019-05-07T13:34:54.813Z,100281.99
2019-05-07T13:38:16.362Z,100284.98
2019-05-07T13:41:57.771Z,100277.25
2019-05-07T13:45:22.327Z,100275.19
2019-05-07T13:48:26.557Z,100278.73
2019-05-07T13:51:33.574Z,100266.85
2019-05-07T13:54:37.129Z,100273.23
2019-05-07T13:57:41.727Z,100268.56
2019-05-07T14:01:23.255Z,100261.30
2019-05-07T14:04:27.275Z,100253.94
2019-05-07T14:07:34.034Z,100251.80
2019-05-07T14:10:38.387Z,100245.53
2019-05-07T14:13:43.588Z,100245.53
2019-05-07T14:16:48.062Z,100245.88
2019-05-07T14:19:53.029Z,100250.95
2019-05-07T14:22:57.524Z,100242.31
2019-05-07T14:26:02.066Z,100239.83
2019-05-07T14:29:06.541Z,100234.95
2019-05-07T14:32:18.118Z,100232.70
2019-05-07T14:35:38.000Z,100238.97
2019-05-07T14:38:44.336Z,100230.67
2019-05-07T14:41:52.074Z,100232.16
2019-05-07T14:44:56.106Z,100232.80
2019-05-07T14:48:00.093Z,100223.60
2019-05-07T14:51:04.305Z,100229.75
2019-05-07T14:54:08.361Z,100225.29
2019-05-07T14:57:12.416Z,100226.29
2019-05-07T15:00:16.881Z,100232.61
2019-05-07T15:03:22.780Z,100215.94
2019-05-07T15:06:27.041Z,100217.72
2019-05-07T15:09:31.777Z,100209.27
2019-05-07T15:12:35.804Z,100212.23
2019-05-07T15:15:39.988Z,100217.91
2019-05-07T15:18:52.944Z,100211.38
2019-05-07T15:22:16.709Z,100206.84
2019-05-07T15:25:22.682Z,100204.83
2019-05-07T15:28:27.618Z,100197.97
2019-05-07T15:31:51.629Z,100197.86
2019-05-07T15:34:55.780Z,100200.63
2019-05-07T15:37:59.950Z,100200.42
2019-05-07T15:41:04.439Z,100189.45
2019-05-07T15:44:08.364Z,100195.56
2019-05-07T15:47:17.830Z,100196.89
2019-05-07T15:50:23.733Z,100196.14
2019-05-07T15:53:42.719Z,100184.36
2019-05-07T15:56:47.377Z,100186.25
2019-05-07T15:59:53.365Z,100184.66
2019-05-07T16:03:08.314Z,100176.65
2019-05-07T16:06:12.975Z,100172.08
2019-05-07T16:09:17.869Z,100172.19
2019-05-07T16:12:22.825Z,100169.31
2019-05-07T16:15:26.816Z,100159.08
2019-05-07T16:18:39.527Z,100157.94
2019-05-07T16:21:43.747Z,100154.99
2019-05-07T16:24:48.233Z,100150.37
2019-05-07T16:27:52.802Z,100151.47
2019-05-07T16:30:57.237Z,100149.26
2019-05-07T16:34:02.570Z,100145.50
2019-05-07T16:37:07.621Z,100142.83
2019-05-07T16:40:12.867Z,100148.51
2019-05-07T16:43:17.025Z,100137.96
2019-05-07T16:46:22.349Z,100131.74
2019-05-07T16:49:26.754Z,100138.25
2019-05-07T16:52:34.728Z,100130.38
2019-05-07T16:55:37.303Z,100131.01
2019-05-07T16:58:48.356Z,100130.09
2019-05-07T17:01:52.535Z,100125.61
2019-05-07T17:05:12.326Z,100128.66
2019-05-07T17:08:32.727Z,100123.98
2019-05-07T17:11:37.007Z,100128.25
2019-05-07T17:14:42.590Z,100123.30
2019-05-07T17:17:46.847Z,100118.37
2019-05-07T17:20:52.262Z,100124.96
2019-05-07T17:23:56.896Z,100119.94
2019-05-07T17:27:02.318Z,100119.70
2019-05-07T17:30:06.736Z,100119.94
2019-05-07T17:33:12.639Z,100115.64
2019-05-07T17:36:16.467Z,100105.48
2019-05-07T17:39:22.534Z,100107.73
2019-05-07T17:42:25.946Z,100112.80
2019-05-07T17:45:32.229Z,100109.32
2019-05-07T17:48:36.669Z,100115.19
2019-05-07T17:51:44.408Z,100109.86
2019-05-07T17:54:48.422Z,100114.82
2019-05-07T17:57:53.106Z,100116.92
2019-05-07T18:00:58.660Z,100110.47
2019-05-07T18:04:03.069Z,100115.94
2019-05-07T18:07:07.673Z,100116.78
2019-05-07T18:10:12.542Z,100118.78
2019-05-07T18:13:17.372Z,100113.03
2019-05-07T18:16:49.307Z,100112.78
2019-05-07T18:19:53.245Z,100110.80
2019-05-07T18:22:57.832Z,100109.14
2019-05-07T18:26:02.120Z,100115.06
2019-05-07T18:29:06.463Z,100114.78
2019-05-07T18:32:12.447Z,100114.70
2019-05-07T18:35:16.562Z,100111.49
2019-05-07T18:38:22.384Z,100104.81
2019-05-07T18:41:26.567Z,100098.31
2019-05-07T18:44:31.269Z,100107.36
2019-05-07T18:47:35.608Z,100107.05
2019-05-07T18:50:41.807Z,100108.20
2019-05-07T18:53:45.406Z,100110.67
2019-05-07T18:56:49.689Z,100106.20
2019-05-07T18:59:54.016Z,100113.02
2019-05-07T19:02:58.501Z,100118.27
2019-05-07T19:06:02.914Z,100120.42
2019-05-07T19:09:08.729Z,100117.63
2019-05-07T19:12:14.505Z,100121.91
2019-05-07T19:15:18.880Z,100122.88
2019-05-07T19:18:23.130Z,100122.77
2019-05-07T19:21:27.553Z,100130.30
2019-05-07T19:24:44.596Z,100125.44
2019-05-07T19:27:38.418Z,100133.47
2019-05-07T19:30:42.525Z,100135.50
2019-05-07T19:33:46.534Z,100131.34
2019-05-07T19:36:52.048Z,100128.27
2019-05-07T19:39:56.763Z,100126.02
2019-05-07T19:43:02.982Z,100126.05
2019-05-07T19:46:07.594Z,100126.08
2019-05-07T19:49:12.304Z,100138.15
2019-05-07T19:52:16.478Z,100132.69
2019-05-07T19:55:21.969Z,100141.70
2019-05-07T19:58:26.029Z,100143.74
2019-05-07T20:01:35.541Z,100131.45
2019-05-07T20:04:40.019Z,100131.98
2019-05-07T20:07:44.545Z,100128.63
2019-05-07T20:10:54.481Z,100122.67
2019-05-07T20:13:58.709Z,100124.69
2019-05-07T20:17:03.693Z,100121.16
2019-05-07T20:20:08.470Z,100120.22
2019-05-07T20:23:12.476Z,100120.22
2019-05-07T20:26:16.692Z,100115.97
2019-05-07T20:29:22.895Z,100110.38
2019-05-07T20:32:27.488Z,100119.80
2019-05-07T20:35:32.535Z,100116.28
2019-05-07T20:38:37.628Z,100118.86
2019-05-07T20:41:42.867Z,100118.70
2019-05-07T20:44:47.630Z,100115.37
2019-05-07T20:47:52.807Z,100110.94
2019-05-07T20:50:56.787Z,100110.03
2019-05-07T20:54:12.682Z,100115.69
2019-05-07T20:57:38.585Z,100118.61
2019-05-07T21:00:43.375Z,100111.28
2019-05-07T21:03:47.700Z,100103.62
2019-05-07T21:06:52.554Z,100103.31
2019-05-07T21:09:57.119Z,100101.00
2019-05-07T21:13:01.017Z,100098.03
2019-05-07T21:16:05.337Z,100097.06
2019-05-07T21:19:09.664Z,100088.25
2019-05-07T21:22:13.508Z,100087.99
2019-05-07T21:25:17.606Z,100093.42
2019-05-07T21:28:21.626Z,100091.97
2019-05-07T21:31:25.545Z,100086.06
2019-05-07T21:34:31.625Z,100087.25
2019-05-07T21:37:35.371Z,100085.19
2019-05-07T21:40:39.231Z,100085.03
2019-05-07T21:43:46.078Z,100072.92
2019-05-07T21:46:51.723Z,100072.45
2019-05-07T21:49:55.351Z,100072.80
2019-05-07T21:53:03.627Z,100071.65
2019-05-07T21:56:16.108Z,100072.80
2019-05-07T21:59:22.254Z,100070.63
2019-05-07T22:02:26.863Z,100066.16
2019-05-07T22:05:31.024Z,100064.65
2019-05-07T22:08:35.098Z,100062.09
2019-05-07T22:11:39.096Z,100059.08
2019-05-07T22:14:42.939Z,100057.56
2019-05-07T22:17:47.257Z,100055.05
2019-05-07T22:20:52.244Z,100050.30
2019-05-07T22:23:56.277Z,100041.11
2019-05-07T22:27:01.726Z,100039.99
2019-05-07T22:30:07.943Z,100037.64
2019-05-07T22:33:18.992Z,100031.97
2019-05-07T22:36:23.139Z,100029.38
2019-05-07T22:39:27.298Z,100026.21
2019-05-07T22:42:32.741Z,100018.64
2019-05-07T22:45:37.320Z,100021.70
2019-05-07T22:48:41.960Z,100022.03
2019-05-07T22:51:46.273Z,100024.27
2019-05-07T22:54:50.274Z,100006.75
2019-05-07T22:58:02.419Z,100010.05
2019-05-07T23:01:09.142Z,99998.20
2019-05-07T23:04:13.385Z,99989.62
2019-05-07T23:07:17.294Z,99992.19
2019-05-07T23:10:22.566Z,99983.87
2019-05-07T23:13:26.738Z,99979.73
2019-05-07T23:16:32.444Z,99970.55
2019-05-07T23:19:36.899Z,99963.63
2019-05-07T23:22:42.841Z,99958.98
2019-05-07T23:25:46.954Z,99956.80
2019-05-07T23:28:51.865Z,99956.97
2019-05-07T23:31:56.329Z,99951.73
2019-05-07T23:35:01.903Z,99942.48
2019-05-07T23:38:05.966Z,99938.92
2019-05-07T23:41:29.162Z,99937.72
2019-05-07T23:44:33.446Z,99930.23
2019-05-07T23:47:37.392Z,99924.72
2019-05-07T23:50:41.882Z,99916.05
2019-05-07T23:53:46.518Z,99907.78
2019-05-07T23:57:02.938Z,99897.53
2019-05-07T23:59:56.624Z,99902.92
